createdAt,value
2022-12-09T00:01:19.519Z,17.77
2022-12-09T00:03:27.308Z,20.77
2022-12-09T00:05:32.854Z,20.88
2022-12-09T00:07:38.855Z,19.65
2022-12-09T00:09:44.186Z,19.00
2022-12-09T00:11:49.138Z,18.63
2022-12-09T00:13:56.222Z,17.25
2022-12-09T00:16:04.623Z,22.35
2022-12-09T00:18:09.729Z,22.38
2022-12-09T00:20:20.003Z,23.83
2022-12-09T00:22:25.634Z,22.27
2022-12-09T00:24:30.991Z,35.47
2022-12-09T00:26:37.097Z,69.68
2022-12-09T00:28:43.638Z,102.53
2022-12-09T00:30:49.094Z,54.38
2022-12-09T00:32:54.354Z,30.10
2022-12-09T00:34:59.870Z,29.90
2022-12-09T00:37:09.129Z,46.78
2022-12-09T00:39:15.214Z,39.13
2022-12-09T00:41:21.577Z,31.35
2022-12-09T00:43:28.836Z,29.05
2022-12-09T00:45:34.509Z,31.52
2022-12-09T00:47:40.103Z,28.27
2022-12-09T00:49:45.797Z,29.50
2022-12-09T00:51:50.915Z,34.22
2022-12-09T00:53:59.089Z,31.10
2022-12-09T00:56:05.532Z,25.75
2022-12-09T00:58:10.474Z,28.23
2022-12-09T01:00:16.796Z,28.20
2022-12-09T01:02:22.077Z,24.60
2022-12-09T01:04:27.968Z,29.10
2022-12-09T01:06:33.831Z,19.70
2022-12-09T01:08:39.674Z,16.80
2022-12-09T01:10:49.098Z,16.17
2022-12-09T01:12:54.062Z,16.08
2022-12-09T01:14:59.058Z,14.90
2022-12-09T01:17:05.415Z,22.40
2022-12-09T01:19:16.130Z,16.00
2022-12-09T01:21:21.668Z,16.60
2022-12-09T01:23:27.295Z,14.50
2022-12-09T01:25:32.900Z,14.77
2022-12-09T01:27:40.603Z,17.23
2022-12-09T01:29:46.524Z,17.65
2022-12-09T01:31:51.701Z,16.48
2022-12-09T01:33:58.658Z,19.42
2022-12-09T01:36:06.340Z,16.77
2022-12-09T01:38:11.844Z,14.70
2022-12-09T01:40:20.410Z,16.33
2022-12-09T01:42:29.037Z,16.67
2022-12-09T01:44:37.515Z,20.83
2022-12-09T01:46:43.074Z,17.23
2022-12-09T01:48:49.971Z,21.38
2022-12-09T01:51:00.022Z,20.38
2022-12-09T01:53:05.359Z,16.42
2022-12-09T01:55:12.881Z,18.55
2022-12-09T01:57:18.579Z,18.27
2022-12-09T01:59:25.376Z,19.00
2022-12-09T02:01:33.560Z,18.45
2022-12-09T02:03:39.853Z,18.92
2022-12-09T02:05:46.334Z,20.45
2022-12-09T02:07:51.671Z,16.58
2022-12-09T02:09:57.152Z,17.00
2022-12-09T02:12:18.688Z,17.85
2022-12-09T02:14:31.033Z,18.00
2022-12-09T02:16:54.539Z,17.50
2022-12-09T02:19:10.216Z,16.98
2022-12-09T02:21:24.059Z,14.68
2022-12-09T02:23:41.682Z,16.20
2022-12-09T02:25:52.664Z,15.00
2022-12-09T02:28:24.846Z,16.55
2022-12-09T02:30:40.458Z,16.20
2022-12-09T02:33:37.294Z,15.30
2022-12-09T02:35:53.469Z,15.73
2022-12-09T02:38:08.453Z,12.32
2022-12-09T02:40:22.091Z,16.40
2022-12-09T02:42:33.474Z,13.80
2022-12-09T02:44:42.142Z,16.20
2022-12-09T02:46:49.680Z,14.77
2022-12-09T02:48:59.447Z,17.38
2022-12-09T02:51:12.975Z,17.95
2022-12-09T02:53:20.472Z,18.30
2022-12-09T02:55:26.736Z,19.00
2022-12-09T02:57:34.578Z,16.80
2022-12-09T02:59:39.621Z,17.25
2022-12-09T03:01:51.438Z,15.48
2022-12-09T03:03:57.341Z,17.17
2022-12-09T03:06:11.000Z,18.42
2022-12-09T03:08:26.938Z,18.35
2022-12-09T03:10:39.910Z,16.95
2022-12-09T03:12:53.533Z,16.08
2022-12-09T03:15:00.894Z,15.85
2022-12-09T03:17:16.168Z,17.00
2022-12-09T03:19:27.945Z,19.98
2022-12-09T03:21:38.287Z,19.40
2022-12-09T03:23:46.791Z,16.92
2022-12-09T03:25:56.120Z,16.15
2022-12-09T03:28:05.615Z,20.27
2022-12-09T03:30:13.781Z,21.33
2022-12-09T03:32:21.863Z,18.90
2022-12-09T03:34:33.576Z,21.40
2022-12-09T03:36:45.974Z,18.60
2022-12-09T03:38:54.422Z,19.02
2022-12-09T03:41:08.389Z,18.40
2022-12-09T03:43:18.193Z,20.17
2022-12-09T03:45:24.859Z,17.58
2022-12-09T03:47:30.403Z,18.45
2022-12-09T03:49:35.919Z,22.25
2022-12-09T03:51:49.303Z,18.40
2022-12-09T03:54:03.494Z,20.88
2022-12-09T03:56:15.377Z,21.83
2022-12-09T03:58:20.643Z,17.70
2022-12-09T04:00:25.957Z,20.02
2022-12-09T04:02:32.435Z,21.42
2022-12-09T04:04:41.510Z,19.70
2022-12-09T04:06:50.619Z,20.58
2022-12-09T04:09:01.940Z,18.70
2022-12-09T04:11:07.877Z,20.10
2022-12-09T04:13:13.043Z,22.70
2022-12-09T04:15:18.810Z,22.65
2022-12-09T04:17:24.177Z,22.13
2022-12-09T04:19:29.728Z,21.92
2022-12-09T04:21:35.338Z,24.05
2022-12-09T04:23:43.542Z,23.52
2022-12-09T04:25:49.305Z,26.80
2022-12-09T04:27:55.103Z,21.73
2022-12-09T04:30:00.931Z,22.00
2022-12-09T04:32:06.082Z,19.85
2022-12-09T04:34:11.555Z,25.58
2022-12-09T04:36:18.883Z,26.35
2022-12-09T04:38:24.010Z,32.75
2022-12-09T04:40:32.561Z,22.63
2022-12-09T04:42:37.847Z,31.40
2022-12-09T04:44:43.467Z,22.35
2022-12-09T04:46:48.480Z,22.95
2022-12-09T04:48:54.204Z,25.20
2022-12-09T04:50:59.966Z,25.00
2022-12-09T04:53:05.830Z,24.98
2022-12-09T04:55:14.200Z,30.98
2022-12-09T04:57:22.253Z,24.80
2022-12-09T04:59:29.060Z,23.00
2022-12-09T05:01:34.653Z,24.90
2022-12-09T05:03:41.283Z,24.30
2022-12-09T05:05:47.105Z,25.38
2022-12-09T05:07:52.497Z,25.50
2022-12-09T05:09:58.811Z,28.15
2022-12-09T05:12:04.222Z,33.28
2022-12-09T05:14:12.502Z,28.55
2022-12-09T05:16:20.183Z,30.00
2022-12-09T05:18:25.810Z,28.20
2022-12-09T05:20:31.699Z,29.98
2022-12-09T05:22:36.926Z,23.73
2022-12-09T05:24:44.000Z,26.40
2022-12-09T05:26:50.784Z,27.42
2022-12-09T05:28:56.792Z,29.10
2022-12-09T05:31:06.560Z,29.17
2022-12-09T05:33:13.006Z,30.27
2022-12-09T05:35:18.719Z,25.50
2022-12-09T05:37:24.210Z,28.38
2022-12-09T05:39:29.810Z,30.15
2022-12-09T05:41:35.526Z,24.85
2022-12-09T05:43:41.212Z,24.75
2022-12-09T05:45:47.239Z,27.27
2022-12-09T05:47:55.640Z,25.30
2022-12-09T05:50:07.365Z,26.33
2022-12-09T05:52:14.485Z,27.88
2022-12-09T05:54:20.228Z,27.77
2022-12-09T05:56:27.537Z,27.52
2022-12-09T05:58:33.220Z,32.95
2022-12-09T06:00:38.712Z,34.28
2022-12-09T06:02:44.435Z,31.30
2022-12-09T06:04:52.950Z,28.50
2022-12-09T06:06:58.824Z,38.35
2022-12-09T06:09:08.875Z,40.65
2022-12-09T06:11:17.413Z,32.45
2022-12-09T06:13:22.960Z,32.47
2022-12-09T06:15:33.177Z,33.97
2022-12-09T06:17:39.616Z,32.42
2022-12-09T06:19:44.761Z,35.10
2022-12-09T06:21:52.746Z,37.92
2022-12-09T06:23:58.006Z,35.95
2022-12-09T06:26:03.036Z,37.17
2022-12-09T06:28:08.852Z,33.88
2022-12-09T06:30:14.350Z,38.30
2022-12-09T06:32:21.041Z,37.97
2022-12-09T06:34:26.848Z,36.22
2022-12-09T06:36:34.494Z,39.20
2022-12-09T06:38:42.596Z,33.58
2022-12-09T06:40:48.560Z,36.97
2022-12-09T06:42:54.884Z,35.80
2022-12-09T06:45:00.567Z,38.17
2022-12-09T06:47:05.943Z,44.20
2022-12-09T06:49:12.779Z,52.97
2022-12-09T06:51:19.103Z,45.92
2022-12-09T06:53:24.192Z,51.03
2022-12-09T06:55:31.820Z,48.17
2022-12-09T06:57:37.624Z,54.35
2022-12-09T06:59:42.873Z,47.58
2022-12-09T07:01:48.860Z,55.13
2022-12-09T07:04:00.574Z,60.28
2022-12-09T07:06:06.238Z,41.78
2022-12-09T07:08:11.778Z,68.00
2022-12-09T07:10:17.693Z,64.45
2022-12-09T07:12:25.498Z,80.43
2022-12-09T07:14:30.765Z,71.70
2022-12-09T07:16:36.213Z,79.45
2022-12-09T07:18:42.249Z,77.13
2022-12-09T07:20:47.673Z,73.22
2022-12-09T07:22:53.811Z,70.97
2022-12-09T07:25:00.934Z,92.28
2022-12-09T07:27:10.743Z,64.70
2022-12-09T07:29:21.643Z,58.35
2022-12-09T07:31:29.503Z,60.17
2022-12-09T07:33:35.175Z,58.58
2022-12-09T07:35:40.901Z,43.55
2022-12-09T07:37:46.375Z,62.90
2022-12-09T07:39:51.459Z,49.38
2022-12-09T07:41:58.930Z,50.33
2022-12-09T07:44:08.667Z,48.05
2022-12-09T07:46:18.409Z,55.10
2022-12-09T07:48:24.013Z,58.78
2022-12-09T07:50:29.150Z,53.03
2022-12-09T07:52:35.654Z,57.45
2022-12-09T07:54:41.380Z,46.80
2022-12-09T07:56:47.424Z,42.00
2022-12-09T07:58:54.584Z,43.17
2022-12-09T08:01:00.518Z,44.72
2022-12-09T08:03:08.375Z,47.55
2022-12-09T08:05:14.690Z,46.55
2022-12-09T08:07:20.524Z,41.33
2022-12-09T08:09:26.310Z,40.95
2022-12-09T08:11:34.402Z,40.55
2022-12-09T08:13:42.348Z,36.70
2022-12-09T08:15:47.591Z,38.67
2022-12-09T08:17:52.998Z,43.13
2022-12-09T08:20:01.144Z,43.92
2022-12-09T08:22:06.919Z,42.47
2022-12-09T08:24:15.270Z,32.60
2022-12-09T08:26:24.851Z,37.35
2022-12-09T08:28:31.560Z,31.27
2022-12-09T08:30:36.954Z,32.45
2022-12-09T08:32:42.593Z,29.55
2022-12-09T08:34:48.987Z,30.75
2022-12-09T08:37:01.774Z,33.65
2022-12-09T08:39:08.569Z,32.42
2022-12-09T08:41:17.693Z,33.63
2022-12-09T08:43:22.748Z,34.67
2022-12-09T08:45:28.228Z,72.68
2022-12-09T08:47:34.685Z,112.25
2022-12-09T08:49:40.336Z,66.55
2022-12-09T08:51:45.545Z,114.22
2022-12-09T08:53:53.511Z,64.35
2022-12-09T08:55:58.910Z,50.05
2022-12-09T08:58:04.508Z,47.03
2022-12-09T09:00:12.297Z,28.98
2022-12-09T09:02:18.575Z,37.67
2022-12-09T09:04:25.413Z,31.70
2022-12-09T09:06:31.392Z,45.85
2022-12-09T09:08:37.436Z,52.90
2022-12-09T09:10:45.449Z,29.05
2022-12-09T09:12:51.263Z,43.30
2022-12-09T09:14:57.361Z,29.52
2022-12-09T09:19:10.564Z,25.23
2022-12-09T09:21:19.584Z,26.63
2022-12-09T09:23:24.952Z,24.55
2022-12-09T09:25:30.086Z,25.40
2022-12-09T09:27:38.502Z,22.83
2022-12-09T09:29:43.914Z,24.45
2022-12-09T09:31:54.619Z,25.48
2022-12-09T09:34:01.034Z,19.52
2022-12-09T09:36:11.351Z,21.30
2022-12-09T09:38:16.438Z,21.40
2022-12-09T09:40:22.554Z,27.45
2022-12-09T09:42:36.508Z,26.52
2022-12-09T09:44:49.403Z,25.77
2022-12-09T09:46:57.366Z,27.48
2022-12-09T09:49:04.329Z,28.55
2022-12-09T09:51:18.439Z,30.40
2022-12-09T09:53:31.448Z,21.50
2022-12-09T09:55:45.470Z,23.00
2022-12-09T09:58:02.203Z,22.85
2022-12-09T10:00:24.795Z,33.33
2022-12-09T10:02:48.451Z,28.35
2022-12-09T10:07:26.112Z,31.15
2022-12-09T10:09:51.117Z,36.50
2022-12-09T10:12:06.579Z,46.50
2022-12-09T10:14:20.325Z,53.90
2022-12-09T10:16:38.178Z,47.95
2022-12-09T10:19:08.204Z,28.70
2022-12-09T10:21:21.172Z,39.83
2022-12-09T10:23:29.242Z,34.65
2022-12-09T10:25:38.605Z,22.55
2022-12-09T10:27:50.583Z,52.28
2022-12-09T10:30:02.553Z,34.22
2022-12-09T10:32:18.174Z,18.93
2022-12-09T10:34:24.818Z,26.38
2022-12-09T10:36:36.121Z,27.02
2022-12-09T10:38:44.649Z,33.60
2022-12-09T10:41:10.454Z,30.85
2022-12-09T10:43:42.480Z,29.25
2022-12-09T10:48:34.118Z,28.80
2022-12-09T10:50:40.431Z,27.20
2022-12-09T10:52:49.386Z,26.48
2022-12-09T10:54:54.597Z,30.10
2022-12-09T10:57:26.068Z,29.08
2022-12-09T10:59:33.526Z,28.75
2022-12-09T11:01:52.795Z,31.05
2022-12-09T11:04:01.542Z,33.95
2022-12-09T11:06:21.801Z,35.83
2022-12-09T11:08:27.748Z,49.90
2022-12-09T11:10:35.354Z,30.92
2022-12-09T11:12:41.752Z,32.55
2022-12-09T11:14:54.996Z,36.78
2022-12-09T11:17:06.422Z,35.97
2022-12-09T11:19:17.758Z,32.85
2022-12-09T11:21:39.544Z,32.83
2022-12-09T11:24:02.630Z,36.65
2022-12-09T11:26:24.536Z,36.20
2022-12-09T11:28:32.889Z,37.30
2022-12-09T11:31:04.906Z,35.22
2022-12-09T11:33:27.339Z,45.05
2022-12-09T11:35:42.747Z,31.35
2022-12-09T11:37:47.912Z,29.40
2022-12-09T11:39:54.326Z,34.95
2022-12-09T11:42:18.926Z,35.42
2022-12-09T11:44:32.058Z,34.25
2022-12-09T11:46:37.268Z,34.35
2022-12-09T11:48:45.020Z,34.08
2022-12-09T11:50:54.448Z,34.95
2022-12-09T11:53:18.768Z,33.50
2022-12-09T11:55:27.636Z,32.05
2022-12-09T11:57:38.983Z,34.85
2022-12-09T11:59:52.278Z,32.63
2022-12-09T12:02:06.116Z,33.50
2022-12-09T12:04:15.149Z,39.85
2022-12-09T12:06:26.616Z,48.45
2022-12-09T12:08:38.503Z,45.55
2022-12-09T12:10:49.627Z,44.60
2022-12-09T12:13:05.691Z,43.33
2022-12-09T12:15:18.731Z,39.08
2022-12-09T12:17:36.012Z,42.78
2022-12-09T12:19:44.455Z,41.50
2022-12-09T12:22:20.464Z,38.78
2022-12-09T12:24:49.191Z,36.95
2022-12-09T12:27:10.483Z,43.10
2022-12-09T12:29:34.423Z,48.03
2022-12-09T12:32:07.134Z,46.50
2022-12-09T12:34:25.546Z,40.75
2022-12-09T12:36:44.258Z,43.65
2022-12-09T12:39:07.403Z,36.03
2022-12-09T12:41:20.049Z,37.55
2022-12-09T12:44:04.783Z,33.60
2022-12-09T12:46:36.498Z,32.45
2022-12-09T12:49:01.339Z,29.58
2022-12-09T12:51:21.297Z,36.55
2022-12-09T12:53:38.951Z,33.72
2022-12-09T12:55:55.680Z,31.70
2022-12-09T12:58:13.332Z,30.55
2022-12-09T13:00:24.085Z,25.73
2022-12-09T13:02:44.585Z,25.98
2022-12-09T13:04:55.626Z,25.80
2022-12-09T13:07:08.652Z,24.67
2022-12-09T13:09:22.454Z,31.73
2022-12-09T13:11:39.895Z,32.75
2022-12-09T13:13:51.151Z,27.20
2022-12-09T13:16:01.700Z,27.73
2022-12-09T13:18:17.229Z,33.17
2022-12-09T13:20:27.863Z,28.15
2022-12-09T13:22:42.337Z,26.08
2022-12-09T13:25:00.375Z,24.30
2022-12-09T13:27:14.331Z,31.50
2022-12-09T13:29:37.250Z,38.00
2022-12-09T13:31:55.432Z,24.50
2022-12-09T13:34:21.283Z,31.70
2022-12-09T13:36:39.104Z,30.25
2022-12-09T13:38:46.891Z,31.52
2022-12-09T13:40:52.376Z,32.17
2022-12-09T13:43:21.926Z,33.88
2022-12-09T13:45:36.190Z,39.75
2022-12-09T13:47:41.512Z,37.75
2022-12-09T13:49:58.804Z,33.15
2022-12-09T13:52:03.844Z,30.23
2022-12-09T13:54:09.309Z,31.88
2022-12-09T13:56:29.247Z,30.80
2022-12-09T13:59:18.589Z,30.30
2022-12-09T14:01:28.114Z,30.60
2022-12-09T14:03:36.515Z,30.73
2022-12-09T14:05:42.153Z,34.50
2022-12-09T14:07:56.188Z,31.67
2022-12-09T14:10:02.914Z,34.83
2022-12-09T14:12:10.186Z,35.72
2022-12-09T14:14:50.227Z,43.53
2022-12-09T14:16:57.090Z,36.42
2022-12-09T14:19:52.481Z,39.10
2022-12-09T14:22:37.803Z,37.75
2022-12-09T14:24:43.843Z,36.63
2022-12-09T14:27:10.449Z,37.42
2022-12-09T14:29:55.505Z,37.70
2022-12-09T14:32:05.719Z,32.97
2022-12-09T14:34:37.211Z,33.97
2022-12-09T14:36:42.581Z,32.30
2022-12-09T14:39:16.091Z,32.78
2022-12-09T14:41:28.599Z,33.97
2022-12-09T14:43:54.179Z,40.53
2022-12-09T14:46:04.850Z,31.27
2022-12-09T14:48:19.070Z,37.70
2022-12-09T14:50:27.767Z,35.90
2022-12-09T14:52:35.655Z,33.55
2022-12-09T14:54:47.107Z,35.08
2022-12-09T14:56:55.042Z,32.90
2022-12-09T14:59:05.824Z,30.08
2022-12-09T15:01:13.538Z,30.42
2022-12-09T15:03:45.465Z,32.88
2022-12-09T15:05:58.777Z,30.48
2022-12-09T15:08:03.899Z,32.47
2022-12-09T15:10:21.876Z,30.10
2022-12-09T15:12:33.335Z,33.80
2022-12-09T15:14:39.311Z,29.88
2022-12-09T15:16:50.453Z,32.92
2022-12-09T15:18:57.056Z,29.50
2022-12-09T15:21:04.042Z,30.55
2022-12-09T15:23:17.958Z,30.65
2022-12-09T15:25:25.563Z,34.10
2022-12-09T15:27:31.521Z,28.67
2022-12-09T15:29:37.212Z,39.28
2022-12-09T15:31:54.588Z,36.20
2022-12-09T15:34:03.442Z,36.92
2022-12-09T15:36:12.675Z,43.85
2022-12-09T15:38:17.967Z,48.30
2022-12-09T15:40:29.144Z,46.80
2022-12-09T15:42:34.227Z,54.15
2022-12-09T15:44:45.689Z,50.25
2022-12-09T15:46:58.167Z,46.22
2022-12-09T15:49:06.791Z,35.85
2022-12-09T15:51:20.487Z,58.58
2022-12-09T15:53:30.382Z,67.30
2022-12-09T15:55:42.684Z,61.13
2022-12-09T15:57:49.417Z,62.50
2022-12-09T16:00:00.755Z,61.65
2022-12-09T16:02:11.043Z,51.50
2022-12-09T16:04:21.449Z,51.88
2022-12-09T16:06:28.564Z,55.67
2022-12-09T16:08:39.860Z,47.67
2022-12-09T16:10:50.433Z,47.88
2022-12-09T16:13:09.189Z,53.88
2022-12-09T16:15:16.924Z,65.30
2022-12-09T16:17:29.243Z,69.60
2022-12-09T16:19:40.675Z,69.38
2022-12-09T16:21:46.767Z,70.13
2022-12-09T16:23:56.701Z,80.13
2022-12-09T16:26:07.397Z,77.20
2022-12-09T16:28:25.548Z,71.70
2022-12-09T16:30:34.740Z,67.18
2022-12-09T16:32:50.571Z,65.28
2022-12-09T16:34:58.386Z,61.85
2022-12-09T16:37:09.327Z,67.10
2022-12-09T16:39:42.900Z,69.18
2022-12-09T16:42:23.164Z,72.97
2022-12-09T16:44:36.752Z,72.38
2022-12-09T16:46:44.755Z,73.57
2022-12-09T16:48:53.637Z,74.60
2022-12-09T16:51:06.025Z,69.28
2022-12-09T16:53:18.772Z,66.05
2022-12-09T16:55:27.300Z,64.65
2022-12-09T16:57:32.659Z,65.03
2022-12-09T16:59:38.217Z,61.78
2022-12-09T17:01:45.273Z,68.78
2022-12-09T17:03:58.815Z,66.15
2022-12-09T17:06:04.007Z,76.88
2022-12-09T17:08:09.330Z,75.35
2022-12-09T17:10:17.304Z,81.50
2022-12-09T17:12:22.445Z,78.32
2022-12-09T17:14:27.438Z,72.72
2022-12-09T17:16:33.853Z,67.95
2022-12-09T17:18:43.040Z,58.72
2022-12-09T17:20:50.542Z,69.20
2022-12-09T17:22:55.632Z,69.07
2022-12-09T17:25:00.609Z,80.70
2022-12-09T17:27:05.951Z,73.93
2022-12-09T17:29:11.123Z,65.95
2022-12-09T17:31:18.892Z,66.32
2022-12-09T17:33:26.303Z,66.70
2022-12-09T17:35:33.850Z,67.38
2022-12-09T17:37:41.385Z,68.22
2022-12-09T17:39:51.172Z,97.63
2022-12-09T17:41:58.801Z,103.82
2022-12-09T17:44:04.116Z,90.07
2022-12-09T17:46:09.862Z,108.53
2022-12-09T17:48:14.981Z,92.90
2022-12-09T17:50:20.232Z,75.90
2022-12-09T17:52:25.201Z,78.70
2022-12-09T17:54:32.791Z,77.88
2022-12-09T17:56:38.095Z,73.53
2022-12-09T17:58:43.564Z,66.38
2022-12-09T18:00:48.935Z,57.70
2022-12-09T18:02:54.115Z,56.97
2022-12-09T18:04:59.080Z,52.75
2022-12-09T18:07:04.146Z,47.72
2022-12-09T18:09:13.107Z,53.47
2022-12-09T18:11:21.929Z,52.92
2022-12-09T18:13:28.509Z,54.08
2022-12-09T18:15:33.556Z,48.75
2022-12-09T18:17:38.463Z,52.83
2022-12-09T18:19:43.671Z,54.17
2022-12-09T18:21:49.035Z,55.28
2022-12-09T18:23:54.345Z,52.83
2022-12-09T18:26:00.191Z,58.70
2022-12-09T18:28:08.617Z,52.42
2022-12-09T18:30:16.672Z,56.63
2022-12-09T18:32:21.724Z,49.20
2022-12-09T18:34:27.364Z,53.55
2022-12-09T18:36:33.586Z,52.20
2022-12-09T18:38:38.659Z,51.42
2022-12-09T18:41:01.340Z,55.53
2022-12-09T18:43:08.880Z,50.28
2022-12-09T18:45:15.624Z,52.90
2022-12-09T18:47:20.847Z,51.78
2022-12-09T18:49:28.847Z,51.80
2022-12-09T18:51:34.199Z,52.40
2022-12-09T18:53:39.421Z,52.13
2022-12-09T18:55:45.123Z,57.38
2022-12-09T18:57:50.095Z,52.58
2022-12-09T18:59:57.896Z,56.80
2022-12-09T19:02:03.210Z,51.72
2022-12-09T19:04:11.266Z,56.08
2022-12-09T19:06:24.103Z,48.78
2022-12-09T19:08:29.086Z,56.63
2022-12-09T19:10:35.145Z,55.17
2022-12-09T19:12:50.593Z,53.88
2022-12-09T19:15:01.755Z,68.75
2022-12-09T19:17:06.993Z,71.45
2022-12-09T19:19:14.862Z,66.07
2022-12-09T19:21:23.569Z,66.45
2022-12-09T19:23:28.923Z,57.85
2022-12-09T19:25:33.953Z,58.13
2022-12-09T19:27:39.622Z,56.20
2022-12-09T19:29:44.643Z,64.97
2022-12-09T19:31:57.138Z,60.80
2022-12-09T19:34:05.144Z,58.95
2022-12-09T19:36:11.559Z,62.83
2022-12-09T19:38:16.524Z,61.80
2022-12-09T19:40:22.347Z,53.83
2022-12-09T19:42:27.260Z,62.47
2022-12-09T19:45:00.188Z,53.63
2022-12-09T19:47:00.223Z,55.92
2022-12-09T19:49:05.318Z,60.47
2022-12-09T19:51:12.615Z,64.97
2022-12-09T19:53:17.577Z,58.08
2022-12-09T19:55:22.688Z,64.55
2022-12-09T19:57:28.129Z,63.13
2022-12-09T19:59:33.475Z,55.60
2022-12-09T20:01:41.866Z,58.45
2022-12-09T20:03:53.388Z,61.83
2022-12-09T20:05:58.633Z,62.03
2022-12-09T20:08:03.960Z,60.10
2022-12-09T20:10:14.542Z,63.42
2022-12-09T20:12:19.612Z,60.58
2022-12-09T20:14:24.834Z,57.80
2022-12-09T20:16:31.199Z,63.20
2022-12-09T20:18:36.855Z,66.88
2022-12-09T20:20:49.062Z,68.07
2022-12-09T20:22:54.643Z,67.63
2022-12-09T20:24:59.634Z,56.88
2022-12-09T20:27:05.648Z,58.53
2022-12-09T20:29:14.078Z,61.25
2022-12-09T20:31:22.141Z,57.67
2022-12-09T20:33:27.136Z,59.45
2022-12-09T20:35:32.405Z,58.95
2022-12-09T20:37:40.672Z,57.92
2022-12-09T20:39:45.718Z,62.55
2022-12-09T20:41:52.599Z,59.13
2022-12-09T20:44:00.479Z,63.90
2022-12-09T20:46:08.549Z,55.42
2022-12-09T20:48:14.230Z,61.55
2022-12-09T20:50:19.387Z,60.70
2022-12-09T20:52:24.730Z,59.25
2022-12-09T20:54:32.370Z,66.72
2022-12-09T20:56:38.182Z,58.15
2022-12-09T20:58:45.671Z,58.30
2022-12-09T21:00:50.707Z,53.33
2022-12-09T21:02:56.730Z,59.10
2022-12-09T21:05:01.717Z,53.90
2022-12-09T21:07:06.783Z,52.25
2022-12-09T21:09:17.922Z,55.80
2022-12-09T21:11:28.029Z,55.72
2022-12-09T21:13:38.168Z,56.10
2022-12-09T21:15:43.713Z,58.75
2022-12-09T21:17:50.810Z,52.92
2022-12-09T21:19:56.123Z,54.20
2022-12-09T21:22:01.129Z,51.25
2022-12-09T21:24:07.537Z,52.95
2022-12-09T21:26:15.468Z,53.45
2022-12-09T21:28:23.203Z,51.35
2022-12-09T21:30:28.917Z,53.40
2022-12-09T21:32:34.442Z,59.28
2022-12-09T21:34:39.946Z,59.97
2022-12-09T21:36:48.249Z,56.85
2022-12-09T21:38:54.093Z,57.97
2022-12-09T21:40:59.070Z,59.08
2022-12-09T21:43:04.011Z,61.42
2022-12-09T21:45:13.148Z,53.25
2022-12-09T21:47:18.114Z,55.63
2022-12-09T21:49:23.068Z,52.88
2022-12-09T21:51:29.322Z,54.80
2022-12-09T21:53:35.354Z,53.92
2022-12-09T21:55:40.307Z,54.10
2022-12-09T21:57:45.667Z,56.40
2022-12-09T21:59:50.624Z,58.47
2022-12-09T22:01:58.756Z,55.63
2022-12-09T22:04:10.780Z,54.53
2022-12-09T22:06:16.277Z,56.80
2022-12-09T22:08:21.279Z,61.03
2022-12-09T22:10:27.234Z,55.28
2022-12-09T22:12:32.196Z,54.30
2022-12-09T22:14:37.196Z,52.75
2022-12-09T22:16:46.082Z,52.03
2022-12-09T22:18:56.111Z,50.45
2022-12-09T22:23:30.600Z,49.45
2022-12-09T22:25:35.691Z,59.05
2022-12-09T22:27:41.411Z,57.45
2022-12-09T22:29:46.633Z,51.38
2022-12-09T22:31:51.666Z,53.58
2022-12-09T22:34:02.632Z,51.10
2022-12-09T22:36:11.318Z,54.22
2022-12-09T22:38:16.582Z,46.33
2022-12-09T22:40:22.295Z,55.15
2022-12-09T22:42:27.320Z,47.50
2022-12-09T22:44:33.468Z,53.65
2022-12-09T22:46:38.508Z,52.58
2022-12-09T22:48:44.767Z,54.22
2022-12-09T22:50:52.705Z,53.08
2022-12-09T22:52:58.645Z,56.17
2022-12-09T22:55:04.003Z,55.70
2022-12-09T22:57:09.487Z,58.80
2022-12-09T22:59:16.506Z,52.42
2022-12-09T23:01:27.707Z,53.17
2022-12-09T23:03:32.709Z,48.83
2022-12-09T23:05:39.982Z,56.15
2022-12-09T23:07:47.584Z,54.53
2022-12-09T23:09:52.573Z,48.28
2022-12-09T23:11:57.818Z,44.05
2022-12-09T23:14:03.324Z,56.28
2022-12-09T23:16:12.408Z,54.60
2022-12-09T23:18:17.546Z,51.00
2022-12-09T23:20:22.963Z,54.22
2022-12-09T23:22:28.287Z,53.63
2022-12-09T23:24:35.854Z,55.97
2022-12-09T23:26:43.196Z,47.60
2022-12-09T23:28:51.266Z,57.83
2022-12-09T23:30:56.248Z,55.15
2022-12-09T23:33:01.704Z,57.38
2022-12-09T23:35:08.299Z,60.15
2022-12-09T23:37:14.615Z,50.22
2022-12-09T23:39:21.843Z,52.58
2022-12-09T23:41:31.195Z,59.85
2022-12-09T23:43:38.525Z,50.10
2022-12-09T23:45:43.502Z,52.65
2022-12-09T23:47:48.456Z,51.00
2022-12-09T23:49:53.422Z,52.58
2022-12-09T23:51:58.459Z,57.53
2022-12-09T23:54:07.128Z,60.28
2022-12-09T23:56:15.732Z,55.10
2022-12-09T23:58:23.813Z,62.78
